createdAt,value
2017-12-08T00:00:27.194Z,89.40
2017-12-08T00:02:56.063Z,89.60
2017-12-08T00:05:24.075Z,89.60
2017-12-08T00:07:52.858Z,89.90
2017-12-08T00:10:21.795Z,90.00
2017-12-08T00:12:49.835Z,90.00
2017-12-08T00:15:18.773Z,89.90
2017-12-08T00:17:46.939Z,90.00
2017-12-08T00:20:14.988Z,90.10
2017-12-08T00:22:42.994Z,90.00
2017-12-08T00:25:11.165Z,90.00
2017-12-08T00:27:39.174Z,90.10
2017-12-08T00:30:07.957Z,90.50
2017-12-08T00:32:36.120Z,90.40
2017-12-08T00:35:04.196Z,90.50
2017-12-08T00:37:32.247Z,90.50
2017-12-08T00:40:00.413Z,90.50
2017-12-08T00:42:28.456Z,90.50
2017-12-08T00:44:56.499Z,90.60
2017-12-08T00:47:25.427Z,90.60
2017-12-08T00:49:53.480Z,90.60
2017-12-08T00:52:22.234Z,90.60
2017-12-08T00:54:50.375Z,90.60
2017-12-08T00:57:18.424Z,90.50
2017-12-08T00:59:47.203Z,90.50
2017-12-08T01:02:16.061Z,90.40
2017-12-08T01:04:44.074Z,90.40
2017-12-08T01:07:12.860Z,90.50
2017-12-08T01:09:41.780Z,90.50
2017-12-08T01:12:09.820Z,90.50
2017-12-08T01:14:38.566Z,90.70
2017-12-08T01:17:06.867Z,90.70
2017-12-08T01:19:34.916Z,90.70
2017-12-08T01:22:02.962Z,90.70
2017-12-08T01:24:31.095Z,90.70
2017-12-08T01:26:59.134Z,90.70
2017-12-08T01:29:27.185Z,90.80
2017-12-08T01:31:55.330Z,90.70
2017-12-08T01:34:24.101Z,91.10
2017-12-08T01:36:52.114Z,91.10
2017-12-08T01:39:20.287Z,91.00
2017-12-08T01:41:49.507Z,91.10
2017-12-08T01:44:17.555Z,91.20
2017-12-08T01:46:45.728Z,91.20
2017-12-08T01:49:13.770Z,91.40
2017-12-08T01:51:42.550Z,91.50
2017-12-08T01:54:10.727Z,91.40
2017-12-08T01:56:38.746Z,91.50
2017-12-08T01:59:06.811Z,91.50
2017-12-08T02:01:34.992Z,91.50
2017-12-08T02:04:03.052Z,91.50
2017-12-08T02:06:31.174Z,91.60
2017-12-08T02:08:59.359Z,91.80
2017-12-08T02:11:27.382Z,91.80
2017-12-08T02:13:55.420Z,92.00
2017-12-08T02:16:24.342Z,91.90
2017-12-08T02:18:52.516Z,91.90
2017-12-08T02:21:20.676Z,92.10
2017-12-08T02:23:49.614Z,92.20
2017-12-08T02:26:17.731Z,92.20
2017-12-08T02:28:46.662Z,92.30
2017-12-08T02:31:14.859Z,92.20
2017-12-08T02:33:42.925Z,92.30
2017-12-08T02:36:10.979Z,92.30
2017-12-08T02:38:39.182Z,92.20
2017-12-08T02:41:07.231Z,92.20
2017-12-08T02:43:35.267Z,92.40
2017-12-08T02:46:04.208Z,92.50
2017-12-08T02:48:32.355Z,92.50
2017-12-08T02:51:01.243Z,92.50
2017-12-08T02:53:30.148Z,92.50
2017-12-08T02:55:58.190Z,92.50
2017-12-08T02:58:26.947Z,92.50
2017-12-08T03:00:55.115Z,92.50
2017-12-08T03:03:23.167Z,92.60
2017-12-08T03:05:51.299Z,92.80
2017-12-08T03:08:19.446Z,92.60
2017-12-08T03:10:47.516Z,92.60
2017-12-08T03:13:15.587Z,92.40
2017-12-08T03:15:43.804Z,92.60
2017-12-08T03:18:12.711Z,92.50
2017-12-08T03:20:41.728Z,92.40
2017-12-08T03:23:09.895Z,92.30
2017-12-08T03:25:37.959Z,92.30
2017-12-08T03:28:06.040Z,92.50
2017-12-08T03:30:34.171Z,92.00
2017-12-08T03:33:02.210Z,91.50
2017-12-08T03:35:30.233Z,91.40
2017-12-08T03:37:59.199Z,90.00
2017-12-08T03:40:27.344Z,90.00
2017-12-08T03:42:55.535Z,88.90
2017-12-08T03:45:23.718Z,87.80
2017-12-08T03:47:51.811Z,86.60
2017-12-08T03:50:20.128Z,85.80
2017-12-08T03:52:48.286Z,84.80
2017-12-08T03:55:17.058Z,89.10
2017-12-08T03:57:45.860Z,89.60
2017-12-08T04:00:14.856Z,89.60
2017-12-08T04:02:43.618Z,90.30
2017-12-08T04:05:11.678Z,90.30
2017-12-08T04:07:39.827Z,90.80
2017-12-08T04:10:07.854Z,91.30
2017-12-08T04:12:36.758Z,91.90
2017-12-08T04:15:05.732Z,92.20
2017-12-08T04:17:33.766Z,92.20
2017-12-08T04:20:01.815Z,92.00
2017-12-08T04:22:30.142Z,91.50
2017-12-08T04:24:58.212Z,91.20
2017-12-08T04:27:26.303Z,90.60
2017-12-08T04:29:55.195Z,90.10
2017-12-08T04:32:23.264Z,90.00
2017-12-08T04:34:51.287Z,89.70
2017-12-08T04:37:19.455Z,89.90
2017-12-08T04:39:47.490Z,89.50
2017-12-08T04:42:16.278Z,90.20
2017-12-08T04:44:44.456Z,90.20
2017-12-08T04:47:12.530Z,90.60
2017-12-08T04:49:41.295Z,89.80
2017-12-08T04:52:09.512Z,89.80
2017-12-08T04:54:38.282Z,90.30
2017-12-08T04:57:06.314Z,90.30
2017-12-08T04:59:34.484Z,90.20
2017-12-08T05:02:02.512Z,90.20
2017-12-08T05:04:31.384Z,89.60
2017-12-08T05:06:59.529Z,89.60
2017-12-08T05:09:27.583Z,89.10
2017-12-08T05:11:55.600Z,87.60
2017-12-08T05:14:23.766Z,87.40
2017-12-08T05:16:51.904Z,87.10
2017-12-08T05:19:19.974Z,87.30
2017-12-08T05:21:48.367Z,87.00
2017-12-08T05:24:16.587Z,86.70
2017-12-08T05:26:44.671Z,86.90
2017-12-08T05:29:13.575Z,87.00
2017-12-08T05:31:42.475Z,88.50
2017-12-08T05:34:10.604Z,88.50
2017-12-08T05:36:38.792Z,88.60
2017-12-08T05:39:07.075Z,88.70
2017-12-08T05:41:35.103Z,88.20
2017-12-08T05:44:03.552Z,87.60
2017-12-08T05:46:31.652Z,87.50
2017-12-08T05:48:59.659Z,87.50
2017-12-08T05:51:27.860Z,87.00
2017-12-08T05:53:56.624Z,86.90
2017-12-08T05:56:24.660Z,86.90
2017-12-08T05:58:52.848Z,87.50
2017-12-08T06:01:21.041Z,88.30
2017-12-08T06:03:49.114Z,87.70
2017-12-08T06:06:17.426Z,87.80
2017-12-08T06:08:46.215Z,88.20
2017-12-08T06:11:14.978Z,88.70
2017-12-08T06:13:43.159Z,88.70
2017-12-08T06:16:11.210Z,88.70
2017-12-08T06:18:39.231Z,89.30
2017-12-08T06:21:08.152Z,88.70
2017-12-08T06:23:37.023Z,88.50
2017-12-08T06:26:05.244Z,88.50
2017-12-08T06:28:33.440Z,88.40
2017-12-08T06:31:01.496Z,88.30
2017-12-08T06:33:29.572Z,88.90
2017-12-08T06:35:57.721Z,89.30
2017-12-08T06:38:25.772Z,89.10
2017-12-08T06:40:53.852Z,89.80
2017-12-08T06:43:23.631Z,89.30
2017-12-08T06:45:53.329Z,90.00
2017-12-08T06:48:21.359Z,90.00
2017-12-08T06:50:49.523Z,90.10
2017-12-08T06:53:17.579Z,90.50
2017-12-08T06:55:46.342Z,90.80
2017-12-08T06:58:15.218Z,90.70
2017-12-08T07:00:43.304Z,90.60
2017-12-08T07:03:11.329Z,90.70
2017-12-08T07:05:39.508Z,90.80
2017-12-08T07:08:07.600Z,91.10
2017-12-08T07:10:35.688Z,91.10
2017-12-08T07:13:04.082Z,91.00
2017-12-08T07:15:32.853Z,91.30
2017-12-08T07:18:00.932Z,91.30
2017-12-08T07:20:29.174Z,91.50
2017-12-08T07:22:57.267Z,91.80
2017-12-08T07:25:25.360Z,92.10
2017-12-08T07:27:53.736Z,92.20
2017-12-08T07:30:21.827Z,92.10
2017-12-08T07:32:50.644Z,92.50
2017-12-08T07:35:18.860Z,92.50
2017-12-08T07:37:47.011Z,92.90
2017-12-08T07:40:15.054Z,93.00
2017-12-08T07:42:43.985Z,92.60
2017-12-08T07:45:12.151Z,92.60
2017-12-08T07:47:40.192Z,93.00
2017-12-08T07:50:09.107Z,93.50
2017-12-08T07:52:37.131Z,93.40
2017-12-08T07:55:05.157Z,93.50
2017-12-08T07:57:33.311Z,93.70
2017-12-08T08:00:02.104Z,93.50
2017-12-08T08:02:30.115Z,93.50
2017-12-08T08:04:58.280Z,93.50
2017-12-08T08:07:26.332Z,93.40
2017-12-08T08:09:54.326Z,92.20
2017-12-08T08:12:22.735Z,92.40
2017-12-08T08:14:50.863Z,91.40
2017-12-08T08:17:18.931Z,91.40
2017-12-08T08:19:47.764Z,91.80
2017-12-08T08:22:15.855Z,92.60
2017-12-08T08:24:43.915Z,92.30
2017-12-08T08:27:12.051Z,92.70
2017-12-08T08:29:41.265Z,92.70
2017-12-08T08:32:09.319Z,92.90
2017-12-08T08:34:37.494Z,93.20
2017-12-08T08:37:05.695Z,93.20
2017-12-08T08:39:33.760Z,93.50
2017-12-08T08:42:01.953Z,93.60
2017-12-08T08:44:30.075Z,93.40
2017-12-08T08:46:58.871Z,93.30
2017-12-08T08:49:27.059Z,93.30
2017-12-08T08:51:55.159Z,93.50
2017-12-08T08:54:23.250Z,93.70
2017-12-08T08:56:51.444Z,93.80
2017-12-08T08:59:20.255Z,94.00
2017-12-08T09:01:49.063Z,94.00
2017-12-08T09:04:17.294Z,94.00
2017-12-08T09:06:45.416Z,94.40
2017-12-08T09:09:13.508Z,94.20
2017-12-08T09:11:41.642Z,94.40
2017-12-08T09:14:10.391Z,94.60
2017-12-08T09:16:38.459Z,94.70
2017-12-08T09:19:06.610Z,94.90
2017-12-08T09:21:34.655Z,95.30
2017-12-08T09:24:02.714Z,95.40
2017-12-08T09:26:31.667Z,95.60
2017-12-08T09:28:59.740Z,95.60
2017-12-08T09:31:27.960Z,95.60
2017-12-08T09:33:56.884Z,95.70
2017-12-08T09:36:25.016Z,95.80
2017-12-08T09:38:53.829Z,96.20
2017-12-08T09:41:21.962Z,96.10
2017-12-08T09:43:50.047Z,95.80
2017-12-08T09:46:18.079Z,95.80
2017-12-08T09:48:46.211Z,95.70
2017-12-08T09:51:15.033Z,95.50
2017-12-08T09:53:43.107Z,95.50
2017-12-08T09:56:11.304Z,95.60
2017-12-08T09:58:39.363Z,95.90
2017-12-08T10:01:07.455Z,95.50
2017-12-08T10:03:35.896Z,95.70
2017-12-08T10:06:04.215Z,95.70
2017-12-08T10:08:32.677Z,95.90
2017-12-08T10:11:01.193Z,96.90
2017-12-08T10:13:29.268Z,97.90
2017-12-08T10:15:57.555Z,97.80
2017-12-08T10:18:26.874Z,98.60
2017-12-08T10:20:55.219Z,98.60
2017-12-08T10:23:23.431Z,98.30
2017-12-08T10:25:52.372Z,99.60
2017-12-08T10:28:20.452Z,99.60
2017-12-08T10:30:48.588Z,99.90
2017-12-08T10:33:16.886Z,99.90
2017-12-08T10:35:45.016Z,99.90
2017-12-08T10:38:13.847Z,99.90
2017-12-08T10:40:42.147Z,99.90
2017-12-08T10:43:10.224Z,99.90
2017-12-08T10:45:38.274Z,99.90
2017-12-08T10:48:06.459Z,99.90
2017-12-08T10:50:34.724Z,99.90
2017-12-08T10:53:02.808Z,99.90
2017-12-08T10:55:31.068Z,99.90
2017-12-08T10:57:59.253Z,99.90
2017-12-08T11:00:32.888Z,99.90
2017-12-08T11:03:01.031Z,99.90
2017-12-08T11:05:29.127Z,99.90
2017-12-08T11:07:57.202Z,99.90
2017-12-08T11:10:25.332Z,99.90
2017-12-08T11:12:53.443Z,99.90
2017-12-08T11:15:21.639Z,99.90
2017-12-08T11:17:49.711Z,99.90
2017-12-08T11:20:17.856Z,99.90
2017-12-08T11:22:46.047Z,99.90
2017-12-08T11:25:14.148Z,99.90
2017-12-08T11:27:42.923Z,99.90
2017-12-08T11:30:11.123Z,99.90
2017-12-08T11:32:39.932Z,99.90
2017-12-08T11:35:08.133Z,99.90
2017-12-08T11:37:36.336Z,99.90
2017-12-08T11:40:04.591Z,99.90
2017-12-08T11:42:32.680Z,99.90
2017-12-08T11:45:00.892Z,99.90
2017-12-08T11:47:29.717Z,99.90
2017-12-08T11:49:57.780Z,99.90
2017-12-08T11:52:25.956Z,99.90
2017-12-08T11:54:54.011Z,99.90
2017-12-08T11:57:22.803Z,99.90
2017-12-08T11:59:50.976Z,99.90
2017-12-08T12:02:19.747Z,99.90
2017-12-08T12:04:48.491Z,99.90
2017-12-08T12:07:16.661Z,99.90
2017-12-08T12:09:44.678Z,99.90
2017-12-08T12:12:12.711Z,99.90
2017-12-08T12:14:40.887Z,99.90
2017-12-08T12:17:08.936Z,99.90
2017-12-08T12:19:37.008Z,99.90
2017-12-08T12:22:05.183Z,99.90
2017-12-08T12:24:33.206Z,99.90
2017-12-08T12:27:01.260Z,99.90
2017-12-08T12:29:29.402Z,99.90
2017-12-08T12:31:57.439Z,99.90
2017-12-08T12:34:26.218Z,99.90
2017-12-08T12:36:54.532Z,99.90
2017-12-08T12:39:22.599Z,99.90
2017-12-08T12:41:51.396Z,99.90
2017-12-08T12:44:19.606Z,99.90
2017-12-08T12:46:47.669Z,99.90
2017-12-08T12:49:15.760Z,99.90
2017-12-08T12:51:44.171Z,99.90
2017-12-08T12:54:13.013Z,99.90
2017-12-08T12:56:41.043Z,99.90
2017-12-08T12:59:09.971Z,99.90
2017-12-08T13:01:38.032Z,99.90
2017-12-08T13:04:06.080Z,99.90
2017-12-08T13:06:35.024Z,99.90
2017-12-08T13:09:03.167Z,99.90
2017-12-08T13:11:31.231Z,99.90
2017-12-08T13:14:00.201Z,99.90
2017-12-08T13:16:28.303Z,99.90
2017-12-08T13:18:57.088Z,99.90
2017-12-08T13:21:25.975Z,99.90
2017-12-08T13:23:54.920Z,99.90
2017-12-08T13:26:22.988Z,99.90
2017-12-08T13:28:51.138Z,99.90
2017-12-08T13:31:19.191Z,99.90
2017-12-08T13:33:47.965Z,99.90
2017-12-08T13:36:16.880Z,99.90
2017-12-08T13:38:45.077Z,99.90
2017-12-08T13:41:13.110Z,99.90
2017-12-08T13:43:42.066Z,99.90
2017-12-08T13:46:10.140Z,99.90
2017-12-08T13:48:38.202Z,99.90
2017-12-08T13:51:06.346Z,99.90
2017-12-08T13:53:45.738Z,99.90
2017-12-08T13:56:25.463Z,99.90
2017-12-08T13:58:53.470Z,99.90
2017-12-08T14:01:21.515Z,99.90
2017-12-08T14:03:49.752Z,99.90
2017-12-08T14:06:18.775Z,99.90
2017-12-08T14:08:46.946Z,99.90
2017-12-08T14:11:15.160Z,99.90
2017-12-08T14:13:43.279Z,99.90
2017-12-08T14:16:11.360Z,99.90
2017-12-08T14:18:39.560Z,99.90
2017-12-08T14:21:07.607Z,99.90
2017-12-08T14:23:35.635Z,99.90
2017-12-08T14:26:03.871Z,99.90
2017-12-08T14:28:31.918Z,99.90
2017-12-08T14:30:59.979Z,99.90
2017-12-08T14:33:28.931Z,99.90
2017-12-08T14:35:57.059Z,99.90
2017-12-08T14:38:25.105Z,99.90
2017-12-08T14:40:54.222Z,99.90
2017-12-08T14:43:22.225Z,99.90
2017-12-08T14:45:50.279Z,99.90
2017-12-08T14:48:18.476Z,99.90
2017-12-08T14:50:46.499Z,99.90
2017-12-08T14:53:15.291Z,99.90
2017-12-08T14:55:44.291Z,99.90
2017-12-08T14:58:13.124Z,99.90
2017-12-08T15:00:41.240Z,99.90
2017-12-08T15:03:10.191Z,99.90
2017-12-08T15:05:38.255Z,99.90
2017-12-08T15:08:06.316Z,99.90
2017-12-08T15:10:34.744Z,99.90
2017-12-08T15:13:02.824Z,99.90
2017-12-08T15:15:30.914Z,99.90
2017-12-08T15:17:59.839Z,99.90
2017-12-08T15:20:27.999Z,99.90
2017-12-08T15:22:56.587Z,99.90
2017-12-08T15:25:25.483Z,99.90
2017-12-08T15:27:53.504Z,99.90
2017-12-08T15:30:22.019Z,99.90
2017-12-08T15:32:50.944Z,99.90
2017-12-08T15:35:19.179Z,99.90
2017-12-08T15:37:48.083Z,99.90
2017-12-08T15:40:17.171Z,99.90
2017-12-08T15:42:46.094Z,99.90
2017-12-08T15:45:15.088Z,99.90
2017-12-08T15:47:43.363Z,99.90
2017-12-08T15:50:11.704Z,99.90
2017-12-08T15:52:40.852Z,99.90
2017-12-08T15:55:09.329Z,99.90
2017-12-08T15:57:37.466Z,99.90
2017-12-08T16:00:06.315Z,99.90
2017-12-08T16:02:34.467Z,99.90
2017-12-08T16:05:02.542Z,99.90
2017-12-08T16:07:30.607Z,99.90
2017-12-08T16:09:58.828Z,99.90
2017-12-08T16:12:26.919Z,99.90
2017-12-08T16:14:54.963Z,99.90
2017-12-08T16:17:23.144Z,99.90
2017-12-08T16:19:51.197Z,99.90
2017-12-08T16:22:19.280Z,99.90
2017-12-08T16:24:47.432Z,99.90
2017-12-08T16:27:15.516Z,99.90
2017-12-08T16:29:43.566Z,99.90
2017-12-08T16:32:11.728Z,99.90
2017-12-08T16:34:40.591Z,99.90
2017-12-08T16:37:08.617Z,99.90
2017-12-08T16:39:36.991Z,99.90
2017-12-08T16:42:05.091Z,99.90
2017-12-08T16:44:33.307Z,99.90
2017-12-08T16:47:02.219Z,99.90
2017-12-08T16:49:30.291Z,99.90
2017-12-08T16:51:58.364Z,99.90
2017-12-08T16:54:26.548Z,99.90
2017-12-08T16:56:54.567Z,99.90
2017-12-08T16:59:22.628Z,99.90
2017-12-08T17:01:50.804Z,99.90
2017-12-08T17:04:18.811Z,99.90
2017-12-08T17:06:47.604Z,99.90
2017-12-08T17:09:16.631Z,99.90
2017-12-08T17:11:45.255Z,99.90
2017-12-08T17:14:13.294Z,99.90
2017-12-08T17:16:41.569Z,99.90
2017-12-08T17:19:09.600Z,99.90
2017-12-08T17:21:37.635Z,99.90
2017-12-08T17:24:06.053Z,99.90
2017-12-08T17:26:34.257Z,99.90
2017-12-08T17:29:02.539Z,99.90
2017-12-08T17:31:30.889Z,99.90
2017-12-08T17:33:59.735Z,99.90
2017-12-08T17:36:27.802Z,99.90
2017-12-08T17:38:56.011Z,99.90
2017-12-08T17:41:24.076Z,99.90
2017-12-08T17:43:52.125Z,99.90
2017-12-08T17:46:20.547Z,99.90
2017-12-08T17:48:48.608Z,99.90
2017-12-08T17:51:16.662Z,99.90
2017-12-08T17:53:45.636Z,99.90
2017-12-08T17:56:13.679Z,99.90
2017-12-08T17:58:42.500Z,99.90
2017-12-08T18:01:10.681Z,99.90
2017-12-08T18:03:38.707Z,99.90
2017-12-08T18:06:07.735Z,99.90
2017-12-08T18:08:35.984Z,99.90
2017-12-08T18:11:04.792Z,99.90
2017-12-08T18:13:32.860Z,99.90
2017-12-08T18:16:01.198Z,99.90
2017-12-08T18:18:29.496Z,99.90
2017-12-08T18:20:58.442Z,99.90
2017-12-08T18:23:26.699Z,99.90
2017-12-08T18:25:54.831Z,99.90
2017-12-08T18:28:22.893Z,99.90
2017-12-08T18:30:51.033Z,99.90
2017-12-08T18:33:19.054Z,99.90
2017-12-08T18:35:47.108Z,99.90
2017-12-08T18:38:15.323Z,99.90
2017-12-08T18:40:44.164Z,99.90
2017-12-08T18:43:12.220Z,99.90
2017-12-08T18:45:40.492Z,99.90
2017-12-08T18:48:08.654Z,99.90
2017-12-08T18:50:36.693Z,99.90
2017-12-08T18:53:04.839Z,99.90
2017-12-08T18:55:32.932Z,99.90
2017-12-08T18:58:00.991Z,99.90
2017-12-08T19:00:29.263Z,99.90
2017-12-08T19:02:57.287Z,99.90
2017-12-08T19:05:25.452Z,99.90
2017-12-08T19:07:54.408Z,99.90
2017-12-08T19:10:22.615Z,99.90
2017-12-08T19:12:51.428Z,99.90
2017-12-08T19:15:19.603Z,99.90
2017-12-08T19:17:47.804Z,99.90
2017-12-08T19:20:15.880Z,99.90
2017-12-08T19:22:44.050Z,99.90
2017-12-08T19:25:12.266Z,99.90
2017-12-08T19:27:40.423Z,99.90
2017-12-08T19:30:08.591Z,99.90
2017-12-08T19:32:36.793Z,99.90
2017-12-08T19:35:04.866Z,99.90
2017-12-08T19:37:33.106Z,99.90
2017-12-08T19:40:01.192Z,99.90
2017-12-08T19:42:29.334Z,99.90
2017-12-08T19:44:57.526Z,99.90
2017-12-08T19:47:25.543Z,99.90
2017-12-08T19:49:53.735Z,99.90
2017-12-08T19:52:22.670Z,99.90
2017-12-08T19:54:50.711Z,99.90
2017-12-08T19:57:18.800Z,99.90
2017-12-08T19:59:47.015Z,99.90
2017-12-08T20:02:15.047Z,99.90
2017-12-08T20:04:43.074Z,99.90
2017-12-08T20:07:11.222Z,99.90
2017-12-08T20:09:39.311Z,99.90
2017-12-08T20:12:07.419Z,99.90
2017-12-08T20:14:36.322Z,99.90
2017-12-08T20:17:04.844Z,99.90
2017-12-08T20:19:32.920Z,99.90
2017-12-08T20:22:01.196Z,99.90
2017-12-08T20:24:29.288Z,99.90
2017-12-08T20:26:57.311Z,99.90
2017-12-08T20:29:25.487Z,99.90
2017-12-08T20:31:53.560Z,99.90
2017-12-08T20:34:21.578Z,99.90
2017-12-08T20:36:49.744Z,99.90
2017-12-08T20:39:17.758Z,99.90
2017-12-08T20:41:46.507Z,99.90
2017-12-08T20:44:14.671Z,99.90
2017-12-08T20:46:42.691Z,99.90
2017-12-08T20:49:11.458Z,99.90
2017-12-08T20:51:39.788Z,99.90
2017-12-08T20:54:07.856Z,99.90
2017-12-08T20:56:35.866Z,99.90
2017-12-08T20:59:04.020Z,99.90
2017-12-08T21:01:32.060Z,99.90
2017-12-08T21:04:00.111Z,99.90
2017-12-08T21:06:29.032Z,99.90
2017-12-08T21:08:57.067Z,99.90
2017-12-08T21:11:25.879Z,99.90
2017-12-08T21:13:54.796Z,99.90
2017-12-08T21:16:22.822Z,99.90
2017-12-08T21:18:50.835Z,99.90
2017-12-08T21:21:18.967Z,99.90
2017-12-08T21:23:46.987Z,99.90
2017-12-08T21:26:15.183Z,99.90
2017-12-08T21:28:43.356Z,99.90
2017-12-08T21:31:11.371Z,99.90
2017-12-08T21:33:40.131Z,99.90
2017-12-08T21:36:08.266Z,99.90
2017-12-08T21:38:36.282Z,99.90
2017-12-08T21:41:04.393Z,99.90
2017-12-08T21:43:32.526Z,99.90
2017-12-08T21:46:00.546Z,99.90
2017-12-08T21:48:28.591Z,99.90
2017-12-08T21:50:57.467Z,99.90
2017-12-08T21:53:25.679Z,99.90
2017-12-08T21:55:53.727Z,99.90
2017-12-08T21:58:21.888Z,99.90
2017-12-08T22:00:50.003Z,99.90
2017-12-08T22:03:18.173Z,99.90
2017-12-08T22:05:47.112Z,99.90
2017-12-08T22:08:15.212Z,99.90
2017-12-08T22:10:43.272Z,99.90
2017-12-08T22:13:11.455Z,99.90
2017-12-08T22:15:39.498Z,99.90
2017-12-08T22:18:07.524Z,99.90
2017-12-08T22:20:36.443Z,99.90
2017-12-08T22:23:04.519Z,99.90
2017-12-08T22:25:32.719Z,99.90
2017-12-08T22:28:00.936Z,99.90
2017-12-08T22:30:29.786Z,99.90
2017-12-08T22:32:57.811Z,99.90
2017-12-08T22:35:26.731Z,99.90
2017-12-08T22:37:54.755Z,99.90
2017-12-08T22:40:22.786Z,99.90
2017-12-08T22:42:50.947Z,99.90
2017-12-08T22:45:19.022Z,99.90
2017-12-08T22:47:47.047Z,99.90
2017-12-08T22:50:15.235Z,99.90
2017-12-08T22:52:44.078Z,99.90
2017-12-08T22:55:12.278Z,99.90
2017-12-08T22:57:40.447Z,99.90
2017-12-08T23:00:08.706Z,99.90
2017-12-08T23:02:36.784Z,99.90
2017-12-08T23:05:04.947Z,99.90
2017-12-08T23:07:32.971Z,99.90
2017-12-08T23:10:01.800Z,99.90
2017-12-08T23:12:29.971Z,99.90
2017-12-08T23:14:58.018Z,99.90
2017-12-08T23:17:26.820Z,99.90
2017-12-08T23:19:54.995Z,99.90
2017-12-08T23:22:23.019Z,99.90
2017-12-08T23:24:51.080Z,99.90
2017-12-08T23:27:19.214Z,99.90
2017-12-08T23:29:47.277Z,99.90
2017-12-08T23:32:16.073Z,99.90
2017-12-08T23:34:44.949Z,99.90
2017-12-08T23:37:13.731Z,99.90
2017-12-08T23:39:41.743Z,99.90
2017-12-08T23:42:10.012Z,99.90
2017-12-08T23:44:38.014Z,99.90
2017-12-08T23:47:06.052Z,99.90
2017-12-08T23:49:34.224Z,99.90
2017-12-08T23:52:02.271Z,99.90
2017-12-08T23:54:30.282Z,99.90
2017-12-08T23:56:58.579Z,99.90
2017-12-08T23:59:26.616Z,99.90
